メインページ
METAR-TAF:

METAR-TAF

空港 :

バンクーバー, ブリティッシュコロンビア州, カナダ

バンクーバー国際空港

緯度: 49-11N, 経度: 123-10W, 海抜: 3m

現時点の気象観測

当レポートは20分前の23:00(UTC)に作成
西/南西の風 5kt
気温 22°C
湿度 50%
気圧 1018 hPa
視程: 48.3km
高度2000ftの雲はほとんどない
高度22000ftの雲はほとんどない

METAR: CYVR 272300Z 25005KT 30SM FEW020 FEW220 22/11 A3007 RMK CU1CI1 CU TR SLP185 DENSITY ALT 600FT

時間: 16:20 (23:20 UTC)

予報

当レポートは2時間42分前の20:38(UTC)に作成
予報は27日の 21時(UTC)から 28日の 24時(UTC)まで有効
西の風 5kt
視程: 10km
高度24000ftの雲はほとんどない
28日の 03時(UTC)から 28日の 05時(UTC)まで徐々に
変向風 3kt
28日の 16時(UTC)から 28日の 18時(UTC)まで徐々に
西の風 8kt

TAF: CYVR 272038Z 2721/2824 26005KT P6SM FEW240 BECMG 2803/2805 VRB03KT BECMG 2816/2818 26008KT RMK NXT FCST BY 280000Z

4,000以上の空港の気象観測と天気予報(METAR報とTAF報)

利用可能な観測所は地図上に黄色い丸と赤い丸で示す。

丸の上にカーソルを重ねると観測所名を参照できる。

次にクリックすると気象観測と天気予報を参照できる。

マップの切り替え:黒色「×」印の緑ボタンをクリックして拡大、「-」印の緑ボタンをクリックして縮小、緑色の三角印をクリックして隣りの地図に切り替え


METAR-TAF: